Nelsonville, Texas
Current Conditions -  °F | °C
As of 3:15 AM on Friday 19 Dec 2014 (Local Time) from K11R Reporting Station
Thunderstorm Thunderstorm  
Wind Chill: 55°   Ceiling: 600
Heat Index: 55°   Visibility: 5mi
Dew Point: 54°   Wind: 6mph
Humidity: 96%   Direction: 330°NNW
Pressure: 30.05"   Gusts: NA
Location:  29.9944°N, 96.2595°W
Report Text: K11R 190915Z AUTO 33005KT 5SM VCTSRA BKN006 OVC011 13/12 A3005 RMK AO2 LTG DSNT ALQS P0011 T01280122
Loading
Personal Weather Stations






























Interactive Weather Map New forecast layout! Learn more

10-Day Weather Forecast

Advertisements
Track Severe Weather on mobile